Time;durP1;ratioP1;P1;durP2;ratioP2;P2;SDS_P1;SDS_P2;PMS_P1;PMS_P2;Temp;Humidity;BMP_temperature;BMP_pressure;BME280_temperature;BME280_humidity;BME280_pressure;Samples;Min_cycle;Max_cycle;Signal;HPM_P1;HPM_P2
2020/12/28 00:02:19;;;;;;;2.75;0.70;;;6.70;87.50;;;;;;5038318;28;20121;-83
2020/12/28 00:04:44;;;;;;;2.08;0.57;;;6.70;88.40;;;;;;5020124;28;20121;-83
2020/12/28 00:07:10;;;;;;;1.98;0.60;;;6.70;88.20;;;;;;5036660;28;20041;-83
2020/12/28 00:09:36;;;;;;;1.88;0.68;;;6.60;88.30;;;;;;5042371;28;20018;-82
2020/12/28 00:12:01;;;;;;;1.38;0.68;;;6.60;88.40;;;;;;5042352;28;21000;-82
2020/12/28 00:14:27;;;;;;;5.53;0.98;;;6.50;88.80;;;;;;5043242;28;20040;-83
2020/12/28 00:16:54;;;;;;;1.42;0.52;;;6.40;89.10;;;;;;5042735;28;20036;-81
2020/12/28 00:19:20;;;;;;;2.17;0.63;;;6.50;88.90;;;;;;5039159;28;20018;-82
2020/12/28 00:21:46;;;;;;;83.40;25.15;;;6.50;89.00;;;;;;5021830;28;20026;-82
2020/12/28 00:24:11;;;;;;;129.18;35.17;;;6.50;88.20;;;;;;5038762;28;20086;-82
2020/12/28 00:26:41;;;;;;;25.13;8.35;;;6.50;88.50;;;;;;5038021;28;20034;-82
2020/12/28 00:29:07;;;;;;;53.55;14.13;;;6.40;89.20;;;;;;5034676;28;20093;-82
2020/12/28 00:31:34;;;;;;;41.30;10.25;;;6.40;89.50;;;;;;5017739;28;20073;-82
2020/12/28 00:34:01;;;;;;;30.73;8.10;;;6.40;89.40;;;;;;5041668;28;20026;-83
2020/12/28 00:36:27;;;;;;;6.50;2.42;;;6.40;90.00;;;;;;5027801;28;20038;-83
2020/12/28 00:38:52;;;;;;;4.82;1.50;;;6.30;90.00;;;;;;5033731;28;20022;-83
2020/12/28 00:41:18;;;;;;;1.33;0.73;;;6.30;91.00;;;;;;5042325;28;20248;-84
2020/12/28 00:43:44;;;;;;;3.67;0.75;;;6.30;90.40;;;;;;5037889;28;20065;-83
2020/12/28 00:46:11;;;;;;;0.47;0.30;;;6.30;90.20;;;;;;5037480;28;20085;-83
2020/12/28 00:48:36;;;;;;;1.55;0.52;;;6.30;90.10;;;;;;5016535;28;20090;-86
2020/12/28 00:51:02;;;;;;;1.30;0.50;;;6.40;89.90;;;;;;5035516;28;20061;-84
2020/12/28 00:53:28;;;;;;;2.58;0.32;;;6.40;89.60;;;;;;5021226;28;20033;-82
2020/12/28 00:55:55;;;;;;;4.40;1.60;;;6.40;89.50;;;;;;5031621;28;20057;-84
2020/12/28 00:58:20;;;;;;;1.92;0.95;;;6.40;89.60;;;;;;5009786;28;20038;-84
2020/12/28 01:00:46;;;;;;;27.35;7.60;;;6.30;90.00;;;;;;5020888;28;20090;-82
2020/12/28 01:03:11;;;;;;;8.63;3.15;;;6.30;90.50;;;;;;5020655;28;20690;-83
2020/12/28 01:05:37;;;;;;;1.83;0.70;;;6.30;90.30;;;;;;5020271;28;20048;-83
2020/12/28 01:08:03;;;;;;;1.90;0.50;;;6.20;90.40;;;;;;5021205;28;20038;-83
2020/12/28 01:10:28;;;;;;;0.60;0.50;;;6.30;90.80;;;;;;5020210;28;20149;-83
2020/12/28 01:12:54;;;;;;;1.48;0.75;;;6.40;90.50;;;;;;5019083;28;20018;-83
2020/12/28 01:15:19;;;;;;;1.05;0.73;;;6.40;90.60;;;;;;5023498;28;20034;-83
2020/12/28 01:17:45;;;;;;;1.98;0.45;;;6.40;90.50;;;;;;5008553;28;20057;-83
2020/12/28 01:20:10;;;;;;;4.85;1.20;;;6.30;90.70;;;;;;5021585;28;20135;-83
2020/12/28 01:22:37;;;;;;;6.00;0.65;;;6.40;91.20;;;;;;5020296;28;20111;-83
2020/12/28 01:25:03;;;;;;;0.68;0.50;;;6.40;91.00;;;;;;5024799;28;20478;-83
2020/12/28 01:27:29;;;;;;;2.75;0.63;;;6.30;91.20;;;;;;5027742;28;20030;-83
2020/12/28 01:29:54;;;;;;;1.63;0.60;;;6.30;91.40;;;;;;5028440;28;20041;-83
2020/12/28 01:32:20;;;;;;;1.52;0.70;;;6.30;91.40;;;;;;5026177;28;20060;-82
2020/12/28 01:34:45;;;;;;;0.55;0.25;;;6.30;91.40;;;;;;5022244;28;20132;-83
2020/12/28 01:37:11;;;;;;;1.05;0.50;;;6.30;91.50;;;;;;5025299;28;20060;-82
2020/12/28 01:39:38;;;;;;;0.70;0.50;;;6.30;91.70;;;;;;5032858;28;20054;-83
2020/12/28 01:42:03;;;;;;;1.55;0.50;;;6.20;92.30;;;;;;5017919;28;20041;-83
2020/12/28 01:44:29;;;;;;;1.15;0.50;;;6.20;92.50;;;;;;5027021;28;20034;-83
2020/12/28 01:46:55;;;;;;;1.95;0.82;;;6.20;93.00;;;;;;5023442;28;20030;-83
2020/12/28 01:49:20;;;;;;;1.23;0.60;;;6.20;93.40;;;;;;5020347;28;20487;-81
2020/12/28 01:51:46;;;;;;;1.00;0.40;;;6.40;92.60;;;;;;5024890;28;20037;-83
2020/12/28 01:54:12;;;;;;;1.20;0.45;;;6.50;92.50;;;;;;5008144;28;20505;-82
2020/12/28 01:56:38;;;;;;;1.83;0.40;;;6.30;93.10;;;;;;5018669;28;20053;-85
2020/12/28 01:59:04;;;;;;;1.38;0.90;;;6.40;92.80;;;;;;5018548;28;20202;-84
2020/12/28 02:01:38;;;;;;;3.95;0.68;;;6.40;92.90;;;;;;5019478;28;20068;-83
2020/12/28 02:04:04;;;;;;;1.05;0.68;;;6.40;92.90;;;;;;5020118;28;20037;-83
2020/12/28 02:06:29;;;;;;;1.08;0.60;;;6.40;93.20;;;;;;5015606;28;20037;-83
2020/12/28 02:08:55;;;;;;;2.15;0.50;;;6.40;93.40;;;;;;5017055;28;20037;-83
2020/12/28 02:11:21;;;;;;;0.57;0.47;;;6.40;93.70;;;;;;5016290;28;20052;-82
2020/12/28 02:13:46;;;;;;;0.80;0.50;;;6.30;94.10;;;;;;5020232;28;20034;-83
2020/12/28 02:16:12;;;;;;;2.35;0.60;;;6.40;94.20;;;;;;5020225;28;20087;-83
2020/12/28 02:18:37;;;;;;;1.55;0.90;;;6.40;94.40;;;;;;5021446;28;20033;-82
2020/12/28 02:21:03;;;;;;;2.85;0.50;;;6.30;96.20;;;;;;5023710;28;20160;-82
2020/12/28 02:23:28;;;;;;;0.55;0.40;;;6.30;97.20;;;;;;5029258;28;20061;-82
2020/12/28 02:25:54;;;;;;;1.23;0.90;;;6.30;97.90;;;;;;5017779;28;20435;-82
2020/12/28 02:28:19;;;;;;;1.35;0.65;;;6.30;98.00;;;;;;5020345;28;20037;-82
2020/12/28 02:30:45;;;;;;;1.52;0.68;;;6.30;99.50;;;;;;5014741;28;20030;-80
2020/12/28 02:33:10;;;;;;;1.00;0.60;;;6.30;99.80;;;;;;5022721;28;20593;-82
2020/12/28 02:35:36;;;;;;;0.93;0.47;;;6.20;99.90;;;;;;5017661;28;20041;-82
2020/12/28 02:38:02;;;;;;;2.30;0.65;;;6.20;99.90;;;;;;5018032;28;20038;-82
2020/12/28 02:40:27;;;;;;;1.55;0.80;;;6.20;99.90;;;;;;5021059;28;20404;-81
2020/12/28 02:42:53;;;;;;;2.95;0.80;;;6.20;99.90;;;;;;5030572;28;20045;-81
2020/12/28 02:45:18;;;;;;;1.55;0.75;;;6.10;99.90;;;;;;5036106;28;20041;-80
2020/12/28 02:47:44;;;;;;;4.18;0.55;;;6.10;99.90;;;;;;5029790;28;20036;-82
2020/12/28 02:50:09;;;;;;;0.93;0.50;;;6.00;99.90;;;;;;5024498;28;20114;-81
2020/12/28 02:52:35;;;;;;;1.38;0.77;;;6.10;99.90;;;;;;5034200;28;20101;-83
2020/12/28 02:55:00;;;;;;;1.20;0.85;;;6.00;99.90;;;;;;5027526;28;20424;-83
2020/12/28 02:57:26;;;;;;;1.77;1.02;;;6.00;99.90;;;;;;5020251;28;20029;-82
2020/12/28 02:59:51;;;;;;;0.90;0.60;;;5.90;99.90;;;;;;5023599;28;20030;-83
2020/12/28 03:02:17;;;;;;;3.63;0.80;;;5.90;99.90;;;;;;5025947;28;20045;-83
2020/12/28 03:04:42;;;;;;;0.70;0.70;;;5.90;99.90;;;;;;5020053;28;20030;-82
2020/12/28 03:07:08;;;;;;;1.10;0.60;;;5.80;99.90;;;;;;5008811;28;20057;-83
2020/12/28 03:09:33;;;;;;;1.20;0.65;;;5.80;99.90;;;;;;5022400;28;20267;-83
2020/12/28 03:11:59;;;;;;;1.30;0.60;;;5.80;99.90;;;;;;5018879;28;20498;-82
2020/12/28 03:14:24;;;;;;;1.00;0.65;;;5.80;99.90;;;;;;5018652;28;20038;-83
2020/12/28 03:16:50;;;;;;;1.80;0.60;;;5.80;99.90;;;;;;5015682;28;20041;-82
2020/12/28 03:19:15;;;;;;;1.52;1.05;;;5.80;99.90;;;;;;5018304;28;20029;-84
2020/12/28 03:21:41;;;;;;;2.60;0.90;;;5.80;99.90;;;;;;5017652;28;20030;-83
2020/12/28 03:24:06;;;;;;;1.55;0.43;;;5.70;99.90;;;;;;5000555;28;20475;-84
2020/12/28 03:26:32;;;;;;;1.73;0.60;;;5.70;99.90;;;;;;5016104;28;20284;-84
2020/12/28 03:28:57;;;;;;;1.23;0.55;;;5.70;99.90;;;;;;5018715;28;20534;-83
2020/12/28 03:31:27;;;;;;;0.70;0.40;;;5.60;99.90;;;;;;5014526;28;20152;-83
2020/12/28 03:33:52;;;;;;;1.55;0.82;;;5.50;99.90;;;;;;5021649;28;20109;-83
2020/12/28 03:36:18;;;;;;;2.65;0.55;;;5.40;99.90;;;;;;5020473;28;20700;-84
2020/12/28 03:38:43;;;;;;;1.00;0.65;;;5.40;99.90;;;;;;5020902;28;20090;-83
2020/12/28 03:41:13;;;;;;;0.77;0.57;;;5.30;99.90;;;;;;5021910;28;20029;-84
2020/12/28 03:43:39;;;;;;;0.80;0.57;;;5.30;99.90;;;;;;4999937;28;20695;-83
2020/12/28 03:46:05;;;;;;;0.93;0.65;;;5.30;99.90;;;;;;5004855;28;20045;-83
2020/12/28 03:48:30;;;;;;;2.00;0.63;;;5.30;99.90;;;;;;5008795;28;20038;-84
2020/12/28 03:50:56;;;;;;;2.08;0.70;;;5.30;99.90;;;;;;4998657;28;20389;-84
2020/12/28 03:53:22;;;;;;;0.93;0.40;;;5.20;99.90;;;;;;4999395;28;20034;-83
2020/12/28 03:55:47;;;;;;;0.75;0.47;;;5.30;99.90;;;;;;5020973;28;20597;-83
2020/12/28 03:58:13;;;;;;;0.47;0.40;;;5.20;99.90;;;;;;5022333;28;20030;-83
2020/12/28 04:00:38;;;;;;;2.25;1.05;;;5.20;99.90;;;;;;5016404;28;20539;-84
2020/12/28 04:03:04;;;;;;;1.02;0.70;;;5.30;99.90;;;;;;5012882;28;20030;-83
2020/12/28 04:05:30;;;;;;;1.05;0.50;;;5.20;99.90;;;;;;5014390;28;20057;-84
2020/12/28 04:07:55;;;;;;;1.38;0.52;;;5.20;99.90;;;;;;5019086;28;20038;-83
2020/12/28 04:10:21;;;;;;;0.80;0.40;;;5.20;99.90;;;;;;5018748;28;20038;-82
2020/12/28 04:12:46;;;;;;;2.60;0.40;;;5.20;99.90;;;;;;5020476;28;20068;-84
2020/12/28 04:15:12;;;;;;;1.75;0.60;;;5.20;99.90;;;;;;5010058;28;20705;-83
2020/12/28 04:17:37;;;;;;;0.75;0.47;;;5.10;99.90;;;;;;5027353;28;20026;-81
2020/12/28 04:20:03;;;;;;;1.95;0.50;;;5.10;99.90;;;;;;5036552;28;20634;-82
2020/12/28 04:22:29;;;;;;;1.27;0.47;;;5.10;99.90;;;;;;5020748;28;20033;-83
2020/12/28 04:24:54;;;;;;;1.67;0.50;;;5.10;99.90;;;;;;5004214;28;20025;-83
2020/12/28 04:27:20;;;;;;;1.83;0.57;;;5.10;99.90;;;;;;5018960;28;20034;-83
2020/12/28 04:29:48;;;;;;;1.00;0.40;;;5.10;99.90;;;;;;5015896;28;20033;-83
2020/12/28 04:32:14;;;;;;;1.20;0.40;;;5.10;99.90;;;;;;4996861;28;20121;-83
2020/12/28 04:34:40;;;;;;;1.00;0.57;;;5.20;99.90;;;;;;5012863;28;20038;-83
2020/12/28 04:37:06;;;;;;;1.02;0.55;;;5.20;99.90;;;;;;5016796;28;20041;-82
2020/12/28 04:39:31;;;;;;;0.50;0.40;;;5.20;99.90;;;;;;5014355;28;20310;-83
2020/12/28 04:41:57;;;;;;;1.17;0.55;;;5.20;99.90;;;;;;5012273;28;20057;-83
2020/12/28 04:44:22;;;;;;;3.08;0.80;;;5.20;99.90;;;;;;5018474;28;20086;-84
2020/12/28 04:46:48;;;;;;;0.93;0.60;;;5.20;99.90;;;;;;5018035;28;20029;-85
2020/12/28 04:49:14;;;;;;;2.65;0.47;;;5.20;99.90;;;;;;5015902;28;20108;-86
2020/12/28 04:51:39;;;;;;;0.90;0.47;;;5.20;99.90;;;;;;5018217;28;20119;-86
2020/12/28 04:54:05;;;;;;;0.70;0.40;;;5.20;99.90;;;;;;5019996;28;20049;-84
2020/12/28 04:56:34;;;;;;;0.32;0.30;;;5.20;99.90;;;;;;5017107;28;20038;-84
2020/12/28 04:59:00;;;;;;;0.40;0.30;;;5.10;99.90;;;;;;5023663;28;20140;-84
2020/12/28 05:01:25;;;;;;;0.55;0.38;;;5.10;99.90;;;;;;5019222;28;20154;-85
2020/12/28 05:03:51;;;;;;;1.17;0.60;;;5.20;99.90;;;;;;5017736;28;20600;-86
2020/12/28 05:06:16;;;;;;;0.88;0.40;;;5.20;99.90;;;;;;5017093;28;20037;-83
2020/12/28 05:08:45;;;;;;;0.77;0.50;;;5.10;99.90;;;;;;5017974;28;20390;-84
2020/12/28 05:11:13;;;;;;;1.10;0.50;;;5.10;99.90;;;;;;5018468;28;20053;-82
2020/12/28 05:13:39;;;;;;;2.92;0.45;;;5.10;99.90;;;;;;5017805;28;20034;-82
2020/12/28 05:16:05;;;;;;;0.57;0.40;;;5.10;99.90;;;;;;5020331;28;20062;-83
2020/12/28 05:18:32;;;;;;;1.38;0.60;;;5.10;99.90;;;;;;5016447;28;20044;-83
2020/12/28 05:20:57;;;;;;;4.50;0.63;;;5.10;99.90;;;;;;5008092;28;20478;-84
2020/12/28 05:23:23;;;;;;;1.38;0.60;;;5.10;99.90;;;;;;5018623;28;20052;-84
2020/12/28 05:25:51;;;;;;;0.68;0.43;;;5.10;99.90;;;;;;5019743;28;20029;-84
2020/12/28 05:28:22;;;;;;;1.75;0.65;;;5.20;99.90;;;;;;5019463;28;20091;-83
2020/12/28 05:30:49;;;;;;;1.63;0.60;;;5.20;99.90;;;;;;4994930;28;20601;-85
2020/12/28 05:33:15;;;;;;;0.90;0.40;;;5.20;99.90;;;;;;5019814;28;20034;-84
2020/12/28 05:35:41;;;;;;;1.13;0.60;;;5.20;99.90;;;;;;4984751;28;20394;-87
2020/12/28 05:38:08;;;;;;;1.20;0.63;;;5.20;99.90;;;;;;5019145;28;20076;-84
2020/12/28 05:40:35;;;;;;;1.25;0.40;;;5.30;99.90;;;;;;5019637;28;20037;-84
2020/12/28 05:43:02;;;;;;;1.25;0.57;;;5.30;99.90;;;;;;5019574;28;20060;-84
2020/12/28 05:45:28;;;;;;;0.80;0.50;;;5.20;99.90;;;;;;5016911;28;20663;-83
2020/12/28 05:47:56;;;;;;;0.90;0.55;;;5.30;99.90;;;;;;5000573;28;20154;-86
2020/12/28 05:50:24;;;;;;;0.77;0.32;;;5.20;99.90;;;;;;5020213;28;20037;-85
2020/12/28 05:52:55;;;;;;;0.98;0.47;;;5.30;99.90;;;;;;5019674;28;20118;-84
2020/12/28 05:55:23;;;;;;;0.95;0.50;;;5.20;99.90;;;;;;5016932;28;20026;-83
2020/12/28 05:57:49;;;;;;;2.63;1.02;;;5.30;99.90;;;;;;5017958;28;20536;-84
2020/12/28 06:00:16;;;;;;;1.48;0.80;;;5.30;99.90;;;;;;4999191;28;20049;-84
2020/12/28 06:02:41;;;;;;;0.75;0.40;;;5.30;99.90;;;;;;5019440;28;20034;-83
2020/12/28 06:05:12;;;;;;;2.85;0.70;;;5.30;99.90;;;;;;5020259;28;20036;-84
2020/12/28 06:07:37;;;;;;;1.05;0.52;;;5.30;99.90;;;;;;5013989;28;20053;-83
2020/12/28 06:10:04;;;;;;;5.28;0.68;;;5.30;99.90;;;;;;5016953;28;20037;-83
2020/12/28 06:12:30;;;;;;;1.02;0.70;;;5.30;99.90;;;;;;5014216;28;20061;-83
2020/12/28 06:14:56;;;;;;;1.38;0.55;;;5.30;99.90;;;;;;5020627;28;20044;-82
2020/12/28 06:17:34;;;;;;;2.30;0.50;;;5.20;99.90;;;;;;5004048;28;20030;-82
2020/12/28 06:20:02;;;;;;;0.60;0.47;;;5.20;99.90;;;;;;5009188;28;20022;-82
2020/12/28 06:22:29;;;;;;;0.73;0.40;;;5.20;99.90;;;;;;5027905;28;20021;-82
2020/12/28 06:25:01;;;;;;;1.00;0.50;;;5.20;99.90;;;;;;5028047;28;20132;-83
2020/12/28 06:27:34;;;;;;;1.17;0.50;;;5.20;99.90;;;;;;5032603;28;20041;-83
2020/12/28 06:30:20;;;;;;;2.85;0.68;;;5.20;99.90;;;;;;5039246;28;20029;-81
2020/12/28 06:32:48;;;;;;;1.15;0.52;;;5.20;99.90;;;;;;5038961;28;20041;-83
2020/12/28 06:35:18;;;;;;;4.25;0.50;;;5.20;99.90;;;;;;5038426;28;20036;-82
2020/12/28 06:37:43;;;;;;;1.45;0.50;;;5.20;99.90;;;;;;5025487;28;20026;-83
2020/12/28 06:40:13;;;;;;;4.53;0.60;;;5.20;99.90;;;;;;5025863;28;20026;-82
2020/12/28 06:42:39;;;;;;;1.10;0.40;;;5.20;99.90;;;;;;5022065;28;20036;-84
2020/12/28 06:45:15;;;;;;;4.32;0.60;;;5.20;99.90;;;;;;5023278;28;20038;-82
2020/12/28 06:47:43;;;;;;;0.65;0.40;;;5.20;99.90;;;;;;5016755;28;20037;-80
2020/12/28 06:50:08;;;;;;;2.35;0.80;;;5.10;99.90;;;;;;4999135;28;20033;-81
2020/12/28 06:52:34;;;;;;;2.33;0.55;;;5.10;99.90;;;;;;4999160;28;20037;-83
2020/12/28 06:55:07;;;;;;;1.85;0.50;;;5.10;99.90;;;;;;5019661;28;20076;-80
2020/12/28 06:57:33;;;;;;;3.58;0.50;;;5.10;99.90;;;;;;5016422;28;20041;-80
2020/12/28 06:59:59;;;;;;;3.03;0.63;;;5.10;99.90;;;;;;5017830;28;20444;-82
2020/12/28 07:02:24;;;;;;;1.55;0.68;;;5.10;99.90;;;;;;5020231;28;20040;-83
2020/12/28 07:04:50;;;;;;;1.02;0.63;;;5.10;99.90;;;;;;5017561;28;20042;-83
2020/12/28 07:07:16;;;;;;;2.35;0.60;;;5.10;99.90;;;;;;5015190;28;20053;-83
2020/12/28 07:09:42;;;;;;;1.60;0.60;;;5.10;99.90;;;;;;5021679;28;20060;-83
2020/12/28 07:12:08;;;;;;;1.20;0.77;;;5.10;99.90;;;;;;5026590;28;20049;-82
2020/12/28 07:14:35;;;;;;;1.50;0.73;;;5.00;99.90;;;;;;5019428;28;20052;-84
2020/12/28 07:17:01;;;;;;;1.95;0.68;;;5.00;99.90;;;;;;5015055;28;20042;-83
2020/12/28 07:19:26;;;;;;;0.57;0.47;;;5.00;99.90;;;;;;5016388;28;20072;-82
2020/12/28 07:21:52;;;;;;;1.17;0.35;;;4.90;99.90;;;;;;5014750;28;20407;-82
2020/12/28 07:24:19;;;;;;;1.13;0.88;;;4.90;99.90;;;;;;5021555;28;20044;-82
2020/12/28 07:26:45;;;;;;;0.63;0.40;;;4.90;99.90;;;;;;5014042;28;20040;-81
2020/12/28 07:29:15;;;;;;;3.45;0.80;;;4.90;99.90;;;;;;5005267;28;20038;-81
2020/12/28 07:31:41;;;;;;;6.47;0.73;;;4.90;99.90;;;;;;5020398;28;20547;-82
2020/12/28 07:34:12;;;;;;;1.17;0.80;;;4.80;99.90;;;;;;5015579;28;20034;-78
2020/12/28 07:36:38;;;;;;;0.82;0.57;;;4.80;99.90;;;;;;5023935;28;20041;-80
2020/12/28 07:39:08;;;;;;;1.05;0.77;;;4.80;99.90;;;;;;5024080;28;20121;-81
2020/12/28 07:41:36;;;;;;;1.35;0.65;;;4.80;99.90;;;;;;5018989;28;20089;-81
2020/12/28 07:44:01;;;;;;;3.45;0.80;;;4.80;99.90;;;;;;5007856;28;20026;-82
2020/12/28 07:46:35;;;;;;;0.68;0.50;;;4.80;99.90;;;;;;5015519;28;20060;-81
2020/12/28 07:49:13;;;;;;;9.13;1.67;;;4.80;99.90;;;;;;5020910;28;20054;-82
2020/12/28 07:51:40;;;;;;;0.77;0.70;;;4.80;99.90;;;;;;5017364;28;20060;-81
2020/12/28 07:54:22;;;;;;;3.72;0.98;;;4.80;99.90;;;;;;5018033;28;20033;-81
2020/12/28 07:57:07;;;;;;;1.55;0.85;;;4.80;99.90;;;;;;5018141;28;20044;-82
2020/12/28 07:59:51;;;;;;;5.40;1.15;;;4.80;99.90;;;;;;5000567;28;20104;-80
2020/12/28 08:02:25;;;;;;;2.08;0.80;;;4.80;99.90;;;;;;5019818;28;20045;-82
2020/12/28 08:04:54;;;;;;;2.63;0.90;;;4.80;99.90;;;;;;5020019;28;20055;-82
2020/12/28 08:07:22;;;;;;;2.20;1.17;;;4.80;99.90;;;;;;5017494;28;20034;-81
2020/12/28 08:09:52;;;;;;;3.20;0.93;;;4.90;99.90;;;;;;5017876;28;20073;-80
2020/12/28 08:12:20;;;;;;;2.90;0.82;;;4.80;99.90;;;;;;5016799;28;21140;-81
2020/12/28 08:14:55;;;;;;;3.83;1.23;;;4.90;99.90;;;;;;5003722;28;20124;-81
2020/12/28 08:17:27;;;;;;;2.80;0.82;;;4.80;99.90;;;;;;5017097;28;20029;-80
2020/12/28 08:20:13;;;;;;;8.10;0.85;;;4.80;99.90;;;;;;5015104;28;20030;-81
2020/12/28 08:22:40;;;;;;;1.95;1.00;;;4.80;99.90;;;;;;5005481;28;20026;-82
2020/12/28 08:25:07;;;;;;;1.63;0.85;;;4.80;99.90;;;;;;5003018;28;20029;-82
2020/12/28 08:27:33;;;;;;;2.50;0.95;;;4.70;99.90;;;;;;5014625;28;20034;-81
2020/12/28 08:30:00;;;;;;;2.22;0.85;;;4.80;99.90;;;;;;5019799;28;20029;-81
2020/12/28 08:32:27;;;;;;;1.95;0.80;;;4.70;99.90;;;;;;5019668;28;20433;-79
2020/12/28 08:34:58;;;;;;;1.02;0.60;;;4.80;99.90;;;;;;5019791;28;20045;-83
2020/12/28 08:37:24;;;;;;;3.42;1.67;;;4.70;99.90;;;;;;5011357;28;20034;-80
2020/12/28 08:39:49;;;;;;;2.80;1.08;;;4.70;99.90;;;;;;5017414;28;20048;-82
2020/12/28 08:42:29;;;;;;;1.35;0.70;;;4.70;99.90;;;;;;5026038;28;20030;-81
2020/12/28 08:44:55;;;;;;;1.60;0.80;;;4.80;99.90;;;;;;5027729;28;20046;-81
2020/12/28 08:47:25;;;;;;;5.15;1.10;;;4.80;99.90;;;;;;5026364;28;20037;-81
2020/12/28 08:49:51;;;;;;;0.98;0.70;;;4.70;99.90;;;;;;5023299;28;20033;-80
2020/12/28 08:52:19;;;;;;;2.20;1.05;;;4.80;99.90;;;;;;5029473;28;20060;-81
2020/12/28 08:54:53;;;;;;;4.15;0.80;;;4.90;99.90;;;;;;5026328;28;20044;-81
2020/12/28 08:57:30;;;;;;;1.10;0.68;;;4.90;99.90;;;;;;5027261;28;20064;-81
2020/12/28 08:59:58;;;;;;;4.40;0.80;;;4.90;99.90;;;;;;5008790;28;20037;-79
2020/12/28 09:02:25;;;;;;;1.85;0.50;;;4.90;99.90;;;;;;5024614;28;20095;-79
2020/12/28 09:04:51;;;;;;;2.17;0.80;;;4.90;99.90;;;;;;5015119;28;20061;-80
2020/12/28 09:07:18;;;;;;;2.00;0.60;;;5.00;99.90;;;;;;5034623;28;20473;-79
2020/12/28 09:09:45;;;;;;;1.42;0.60;;;5.00;99.90;;;;;;4998310;28;20030;-83
2020/12/28 09:12:12;;;;;;;1.92;1.13;;;5.10;99.90;;;;;;5025949;28;20121;-81
2020/12/28 09:14:38;;;;;;;1.65;0.85;;;5.20;99.90;;;;;;5022625;28;20045;-80
2020/12/28 09:17:05;;;;;;;3.92;0.77;;;5.10;99.90;;;;;;5008841;28;20046;-81
2020/12/28 09:19:31;;;;;;;1.45;0.50;;;5.10;99.90;;;;;;5029475;28;20051;-81
2020/12/28 09:21:56;;;;;;;3.47;0.80;;;5.10;99.90;;;;;;5030880;28;20548;-84
2020/12/28 09:24:23;;;;;;;1.88;0.60;;;5.10;99.90;;;;;;5028358;28;20145;-83
2020/12/28 09:26:48;;;;;;;1.80;0.90;;;5.10;99.90;;;;;;5031182;28;20056;-80
2020/12/28 09:29:14;;;;;;;1.20;0.60;;;5.10;99.90;;;;;;5029276;28;20140;-82
2020/12/28 09:31:40;;;;;;;4.95;0.80;;;5.10;99.90;;;;;;5028044;28;20041;-81
2020/12/28 09:34:05;;;;;;;2.88;0.85;;;5.20;99.90;;;;;;5026773;28;20623;-82
2020/12/28 09:36:31;;;;;;;2.42;0.50;;;5.20;99.90;;;;;;5002086;28;20038;-82
2020/12/28 09:38:56;;;;;;;0.88;0.45;;;5.20;99.90;;;;;;5007314;28;20062;-82
2020/12/28 09:41:22;;;;;;;1.05;0.60;;;5.20;99.90;;;;;;5012868;28;20061;-83
2020/12/28 09:43:47;;;;;;;3.20;0.90;;;5.20;99.90;;;;;;5012457;28;20139;-83
2020/12/28 09:46:19;;;;;;;2.20;0.82;;;5.20;99.90;;;;;;5029045;28;20092;-84
2020/12/28 09:48:45;;;;;;;1.23;0.70;;;5.20;99.90;;;;;;5009869;28;20111;-83
2020/12/28 09:51:11;;;;;;;2.25;1.00;;;5.20;99.90;;;;;;5028674;28;20045;-83
2020/12/28 09:53:39;;;;;;;4.65;1.50;;;5.30;99.90;;;;;;5018621;28;20109;-81
2020/12/28 09:56:05;;;;;;;2.08;0.95;;;5.30;99.90;;;;;;5027267;28;20034;-82
2020/12/28 09:58:32;;;;;;;2.03;0.93;;;5.30;99.90;;;;;;5018496;28;20504;-81
2020/12/28 10:01:01;;;;;;;1.38;0.98;;;5.40;99.90;;;;;;5023788;28;20113;-81
2020/12/28 10:03:27;;;;;;;8.20;1.08;;;5.40;99.90;;;;;;5033371;28;20033;-82
2020/12/28 10:05:53;;;;;;;4.30;1.23;;;5.40;99.90;;;;;;5032069;28;20060;-81
2020/12/28 10:08:20;;;;;;;4.80;1.23;;;5.50;99.90;;;;;;5031446;28;20037;-79
2020/12/28 10:10:45;;;;;;;3.03;1.15;;;5.50;99.90;;;;;;5024476;28;20097;-80
2020/12/28 10:13:12;;;;;;;3.03;1.20;;;5.50;99.90;;;;;;5031082;28;20053;-83
2020/12/28 10:15:38;;;;;;;3.58;1.42;;;5.50;99.90;;;;;;5018956;28;20026;-80
2020/12/28 10:18:21;;;;;;;4.40;1.38;;;5.60;99.90;;;;;;5012026;28;20030;-82
2020/12/28 10:20:47;;;;;;;2.03;1.30;;;5.60;99.90;;;;;;5021597;28;20053;-82
2020/12/28 10:23:12;;;;;;;2.92;1.63;;;5.60;99.90;;;;;;5007384;28;20136;-81
2020/12/28 10:25:38;;;;;;;4.32;1.70;;;5.60;99.90;;;;;;4999434;28;20049;-81
2020/12/28 10:28:04;;;;;;;3.90;2.10;;;5.70;99.90;;;;;;5010360;28;20037;-84
2020/12/28 10:30:29;;;;;;;3.13;1.88;;;5.70;99.90;;;;;;5011711;28;20037;-82
2020/12/28 10:32:55;;;;;;;2.75;1.50;;;5.70;99.90;;;;;;5014812;28;20617;-82
2020/12/28 10:35:21;;;;;;;3.85;1.75;;;5.70;99.90;;;;;;5013398;28;20021;-82
2020/12/28 10:37:46;;;;;;;3.47;1.77;;;5.70;99.90;;;;;;5017740;28;20716;-81
2020/12/28 10:40:12;;;;;;;7.60;1.90;;;5.70;99.90;;;;;;5013661;28;20034;-81
2020/12/28 10:42:37;;;;;;;5.63;2.08;;;5.70;99.90;;;;;;5014484;28;20029;-81
2020/12/28 10:45:04;;;;;;;3.40;1.88;;;5.80;99.90;;;;;;5018479;28;20034;-81
2020/12/28 10:47:30;;;;;;;2.97;1.73;;;5.70;99.90;;;;;;5018552;28;20022;-81
2020/12/28 10:49:55;;;;;;;3.60;1.85;;;5.80;99.90;;;;;;5016173;28;20126;-80
2020/12/28 10:52:21;;;;;;;4.07;2.08;;;5.80;99.90;;;;;;5015413;28;20136;-80
2020/12/28 10:54:47;;;;;;;4.03;1.70;;;5.80;99.90;;;;;;5015559;28;20117;-82
2020/12/28 10:57:12;;;;;;;4.80;1.85;;;5.80;99.90;;;;;;5015751;28;20049;-82
2020/12/28 10:59:38;;;;;;;6.10;2.72;;;5.80;99.90;;;;;;5009831;28;20037;-82
2020/12/28 11:02:04;;;;;;;4.88;1.90;;;5.80;99.90;;;;;;5019441;28;20033;-83
2020/12/28 11:04:29;;;;;;;5.35;2.30;;;5.70;99.90;;;;;;5013227;28;20117;-82
2020/12/28 11:06:55;;;;;;;4.53;2.60;;;5.80;99.90;;;;;;5013851;28;20041;-82
2020/12/28 11:09:21;;;;;;;4.88;2.42;;;5.70;99.90;;;;;;5017415;28;20100;-81
2020/12/28 11:11:49;;;;;;;5.00;2.30;;;5.80;99.90;;;;;;5017979;28;20053;-81
2020/12/28 11:14:15;;;;;;;6.22;2.47;;;5.80;99.90;;;;;;5015700;28;20116;-80
2020/12/28 11:16:41;;;;;;;4.72;2.72;;;5.80;99.90;;;;;;5013236;28;20607;-79
2020/12/28 11:19:06;;;;;;;4.53;2.65;;;5.80;99.90;;;;;;5015686;28;20026;-80
2020/12/28 11:21:32;;;;;;;8.45;2.65;;;5.80;99.90;;;;;;5009869;28;20393;-79
2020/12/28 11:23:58;;;;;;;4.20;2.50;;;5.80;99.90;;;;;;5002661;28;20057;-80
2020/12/28 11:26:24;;;;;;;4.40;2.10;;;5.80;99.90;;;;;;5000513;28;20033;-78
2020/12/28 11:28:50;;;;;;;6.28;2.30;;;5.80;99.90;;;;;;5015653;28;20072;-79
2020/12/28 11:31:17;;;;;;;4.45;2.05;;;5.80;99.90;;;;;;5008653;28;20041;-80
2020/12/28 11:33:43;;;;;;;5.13;2.25;;;5.80;99.90;;;;;;4949188;28;20034;-79
2020/12/28 11:36:09;;;;;;;6.22;2.28;;;5.90;99.90;;;;;;5019451;28;20026;-79
2020/12/28 11:38:35;;;;;;;3.78;1.98;;;5.90;99.90;;;;;;4994528;28;20140;-80
2020/12/28 11:41:01;;;;;;;3.67;2.35;;;5.90;99.90;;;;;;4963155;28;20030;-80
2020/12/28 11:43:27;;;;;;;3.45;1.95;;;5.90;99.90;;;;;;4995722;28;20378;-79
2020/12/28 11:45:54;;;;;;;4.22;2.35;;;5.90;99.90;;;;;;5018754;28;20125;-80
2020/12/28 11:48:19;;;;;;;3.63;1.95;;;6.00;99.90;;;;;;4972769;28;20098;-80
2020/12/28 11:50:45;;;;;;;5.78;2.90;;;6.00;99.90;;;;;;4973458;28;20058;-81
2020/12/28 11:53:10;;;;;;;5.05;2.17;;;6.00;99.90;;;;;;5015099;28;20097;-78
2020/12/28 11:58:20;;;;;;;4.13;2.08;;;6.00;99.90;;;;;;4995731;28;20435;-78
2020/12/28 12:00:46;;;;;;;5.18;2.22;;;6.00;99.90;;;;;;4982761;28;20085;-80
2020/12/28 12:03:12;;;;;;;4.32;2.03;;;6.10;99.90;;;;;;4997901;28;20045;-81
2020/12/28 12:05:37;;;;;;;5.38;3.08;;;6.00;99.90;;;;;;5003628;28;20131;-80
2020/12/28 12:08:03;;;;;;;2.58;1.98;;;6.20;99.90;;;;;;5021318;28;20049;-78
2020/12/28 12:10:28;;;;;;;3.92;2.00;;;6.10;99.90;;;;;;5019483;28;20038;-79
2020/12/28 12:12:54;;;;;;;4.15;2.10;;;6.10;99.90;;;;;;5009397;28;20030;-78
2020/12/28 12:15:20;;;;;;;4.97;2.03;;;6.10;99.90;;;;;;5018638;28;20377;-79
2020/12/28 12:17:45;;;;;;;4.28;2.17;;;6.00;99.90;;;;;;5019196;28;20523;-80
2020/12/28 12:20:11;;;;;;;3.95;2.40;;;6.00;99.90;;;;;;5019450;28;20030;-78
2020/12/28 12:22:36;;;;;;;8.55;2.03;;;6.00;99.90;;;;;;5021424;28;21300;-79
2020/12/28 12:25:02;;;;;;;4.03;2.15;;;6.10;99.90;;;;;;5020458;28;20026;-79
2020/12/28 12:27:28;;;;;;;3.10;1.83;;;6.10;99.90;;;;;;5019607;28;20039;-79
2020/12/28 12:29:53;;;;;;;4.13;2.03;;;6.10;99.90;;;;;;5018649;28;20109;-79
2020/12/28 12:32:19;;;;;;;3.30;1.92;;;6.10;99.90;;;;;;5023289;28;20038;-79
2020/12/28 12:34:44;;;;;;;4.28;1.90;;;6.10;99.90;;;;;;5027995;28;20176;-77
2020/12/28 12:37:12;;;;;;;5.55;2.10;;;6.10;99.90;;;;;;5028961;28;20720;-78
2020/12/28 12:39:37;;;;;;;2.92;1.90;;;6.10;99.90;;;;;;5026753;28;20127;-78
2020/12/28 12:42:03;;;;;;;4.97;2.22;;;6.10;99.90;;;;;;5021244;28;20453;-78
2020/12/28 12:44:28;;;;;;;2.55;1.77;;;6.00;99.90;;;;;;5026748;28;20071;-78
2020/12/28 12:46:54;;;;;;;3.42;1.80;;;6.00;99.90;;;;;;5032789;28;20052;-78
2020/12/28 12:49:19;;;;;;;7.30;2.00;;;6.00;99.90;;;;;;5031470;28;20042;-77
2020/12/28 12:51:45;;;;;;;5.72;1.88;;;6.00;99.90;;;;;;5035325;28;20045;-76
2020/12/28 12:54:10;;;;;;;2.88;1.80;;;5.90;99.90;;;;;;5031542;28;20042;-79
2020/12/28 12:56:36;;;;;;;3.85;1.95;;;5.90;99.90;;;;;;5018280;28;20112;-77
2020/12/28 12:59:01;;;;;;;4.05;1.40;;;5.90;99.90;;;;;;5012187;28;20120;-78